Airfield :
LOGIN :

Register | Disclaimer

   EN    FR    IT 

 










Legend :    VFR   Marginal VFR   IFR   Intensive IFR   Very Intensive IFR
Visi :
Ceiling :
>= 8 km
>= 3000ft
5 to 8 km
1000 to 3000 ft
1500m to 5 km
500 to 1000 ft
800 to 1500m
200 to 500 ft
< 800m
< 200 ft
Symbols :   Thunderstorms  Fog  Heavy snow  Heavy precipitations  Wind > 20 kt
SIGMETs :     Misc.  Thunderstorms  Icing  Turbulence  Mountain Waves  Volcanic Ashes







- Airport Elevation : 640 ft
- IATA code : AOC


EDAC - Altenburg-Nobitz

CURRENT METAR :
  • 191220Z 04003KT 010V080 9999 SCT013 BKN020 OVC049 12/08 Q1025

EXPIRED METARs :
  • 191150Z 35003KT 320V030 9999 SCT012 BKN020 OVC049 12/09 Q1025
  • 191120Z 36003KT 310V030 9999 SCT011 OVC049 11/08 Q1025
  • 191050Z 02004KT 9999 SCT010 OVC049 11/08 Q1025
  • 191020Z 01004KT 9999 BKN009 OVC049 11/09 Q1025
  • 190950Z 34004KT 320V020 9999 OVC008 11/09 Q1025

TAF TAF EDAC
Valid from the 19 at 12:00 until the 19 at 21:00 UTC


191100Z 1912/1921 VRB03KT 9999 BKN009
BECMG 1912/1915 SCT012 BKN015
No reported NOTAMs for that airfield.



MET'MAP, your aeronautical weather chart ! - Copyright ORBIFLY December 2007 - Disclaimer

ORBIFLY MET'MAP TEAM :

Programming & Development : Alexandra Zaïnal
Concept & Development : Baudouin d'Aumeries
Co-Development & Prog : Marc-Olivier Méhu
Technical & hardware support : Manuel Goepfert

Contact : metmap@orbifly.com




SOURCES & CREDITS :

   NOAA